createdAt,value
2022-08-27T00:03:32.917Z,98629.88
2022-08-27T00:05:59.903Z,98627.97
2022-08-27T00:08:26.862Z,98625.16
2022-08-27T00:10:54.102Z,98626.88
2022-08-27T00:13:21.087Z,98630.44
2022-08-27T00:15:48.496Z,98620.25
2022-08-27T00:18:17.026Z,98625.38
2022-08-27T00:20:46.441Z,98625.16
2022-08-27T00:23:13.655Z,98633.59
2022-08-27T00:25:40.782Z,98629.09
2022-08-27T00:28:07.714Z,98628.78
2022-08-27T00:30:35.078Z,98620.72
2022-08-27T00:33:04.344Z,98630.13
2022-08-27T00:35:33.014Z,98620.13
2022-08-27T00:38:00.344Z,98622.72
2022-08-27T00:40:27.853Z,98621.69
2022-08-27T00:42:54.986Z,98616.22
2022-08-27T00:45:24.038Z,98619.69
2022-08-27T00:47:55.083Z,98611.75
2022-08-27T00:50:44.502Z,98624.97
2022-08-27T00:53:17.002Z,98615.09
2022-08-27T00:55:58.838Z,98620.38
2022-08-27T00:58:25.804Z,98621.31
2022-08-27T01:00:53.585Z,98618.66
2022-08-27T01:03:20.882Z,98620.25
2022-08-27T01:05:50.748Z,98614.31
2022-08-27T01:08:26.743Z,98614.03
2022-08-27T01:10:55.353Z,98611.53
2022-08-27T01:13:58.846Z,98613.25
2022-08-27T01:16:17.774Z,98610.53
2022-08-27T01:18:45.014Z,98610.59
2022-08-27T01:21:38.351Z,98603.81
2022-08-27T01:24:23.630Z,98615.06
2022-08-27T01:26:51.119Z,98615.06
2022-08-27T01:29:18.794Z,98615.06
2022-08-27T01:31:46.340Z,98612.41
2022-08-27T01:34:13.512Z,98610.69
2022-08-27T01:36:40.632Z,98611.66
2022-08-27T01:39:08.224Z,98605.75
2022-08-27T01:41:36.026Z,98620.75
2022-08-27T01:44:04.555Z,98618.97
2022-08-27T01:46:31.619Z,98619.13
2022-08-27T01:48:58.714Z,98610.31
2022-08-27T01:51:25.865Z,98606.03
2022-08-27T01:53:52.877Z,98618.31
2022-08-27T01:56:20.046Z,98625.56
2022-08-27T01:58:47.386Z,98622.94
2022-08-27T02:01:19.840Z,98615.22
2022-08-27T02:03:48.534Z,98623.19
2022-08-27T02:06:15.721Z,98626.78
2022-08-27T02:08:43.134Z,98617.28
2022-08-27T02:11:10.194Z,98618.22
2022-08-27T02:13:37.576Z,98620.00
2022-08-27T02:16:04.737Z,98621.00
2022-08-27T02:18:31.829Z,98636.09
2022-08-27T02:20:59.026Z,98631.66
2022-08-27T02:23:26.482Z,98631.75
2022-08-27T02:25:54.153Z,98624.75
2022-08-27T02:28:21.178Z,98626.47
2022-08-27T02:30:48.218Z,98631.75
2022-08-27T02:33:15.487Z,98629.94
2022-08-27T02:35:44.476Z,98627.38
2022-08-27T02:38:13.523Z,98630.16
2022-08-27T02:40:40.963Z,98631.53
2022-08-27T02:43:08.100Z,98630.75
2022-08-27T02:45:37.586Z,98636.50
2022-08-27T02:48:05.923Z,98642.13
2022-08-27T02:50:33.784Z,98638.69
2022-08-27T02:53:05.284Z,98634.94
2022-08-27T02:55:33.641Z,98642.25
2022-08-27T02:58:01.227Z,98632.91
2022-08-27T03:00:29.231Z,98638.06
2022-08-27T03:02:57.692Z,98644.47
2022-08-27T03:05:25.227Z,98641.56
2022-08-27T03:07:52.297Z,98639.25
2022-08-27T03:10:20.644Z,98644.66
2022-08-27T03:12:47.690Z,98645.78
2022-08-27T03:15:17.394Z,98646.44
2022-08-27T03:18:03.224Z,98637.25
2022-08-27T03:20:30.577Z,98650.34
2022-08-27T03:22:57.607Z,98651.13
2022-08-27T03:25:24.694Z,98650.88
2022-08-27T03:27:51.894Z,98652.66
2022-08-27T03:30:21.746Z,98653.59
2022-08-27T03:32:48.984Z,98653.31
2022-08-27T03:35:16.104Z,98655.63
2022-08-27T03:37:43.589Z,98656.31
2022-08-27T03:40:11.588Z,98663.34
2022-08-27T03:42:40.746Z,98663.06
2022-08-27T03:45:09.129Z,98664.75
2022-08-27T03:47:36.948Z,98668.88
2022-08-27T03:50:06.159Z,98657.19
2022-08-27T03:52:34.648Z,98672.25
2022-08-27T03:55:02.404Z,98669.88
2022-08-27T03:57:29.432Z,98667.09
2022-08-27T03:59:57.152Z,98659.13
2022-08-27T04:02:24.392Z,98674.84
2022-08-27T04:04:51.882Z,98669.69
2022-08-27T04:07:19.292Z,98663.41
2022-08-27T04:09:46.296Z,98671.28
2022-08-27T04:12:13.152Z,98672.78
2022-08-27T04:14:40.331Z,98675.22
2022-08-27T04:17:07.284Z,98685.44
2022-08-27T04:19:35.293Z,98681.03
2022-08-27T04:22:07.342Z,98691.91
2022-08-27T04:24:36.713Z,98687.34
2022-08-27T04:27:05.860Z,98696.72
2022-08-27T04:29:33.573Z,98694.34
2022-08-27T04:32:01.391Z,98703.84
2022-08-27T04:34:28.335Z,98700.94
2022-08-27T04:36:56.875Z,98709.31
2022-08-27T04:39:25.161Z,98707.84
2022-08-27T04:41:55.613Z,98712.16
2022-08-27T04:44:23.962Z,98713.63
2022-08-27T04:46:57.692Z,98718.66
2022-08-27T04:49:28.880Z,98716.59
2022-08-27T04:51:56.219Z,98719.09
2022-08-27T04:54:32.747Z,98719.13
2022-08-27T04:57:01.912Z,98712.78
2022-08-27T04:59:29.047Z,98722.34
2022-08-27T05:01:56.364Z,98720.28
2022-08-27T05:04:23.572Z,98726.22
2022-08-27T05:06:54.470Z,98727.34
2022-08-27T05:09:24.450Z,98727.06
2022-08-27T05:11:55.613Z,98730.47
2022-08-27T05:14:24.367Z,98730.78
2022-08-27T05:16:51.793Z,98727.78
2022-08-27T05:19:18.836Z,98729.00
2022-08-27T05:21:49.207Z,98728.25
2022-08-27T05:24:17.609Z,98731.00
2022-08-27T05:26:45.640Z,98736.03
2022-08-27T05:29:12.943Z,98738.13
2022-08-27T05:31:40.579Z,98736.72
2022-08-27T05:34:10.644Z,98735.47
2022-08-27T05:36:48.555Z,98742.09
2022-08-27T05:39:17.337Z,98741.50
2022-08-27T05:41:44.409Z,98739.88
2022-08-27T05:44:39.709Z,98743.56
2022-08-27T05:46:58.733Z,98743.84
2022-08-27T05:49:26.103Z,98738.59
2022-08-27T05:51:53.447Z,98727.84
2022-08-27T05:54:20.457Z,98731.25
2022-08-27T05:56:50.105Z,98736.44
2022-08-27T05:59:35.972Z,98739.75
2022-08-27T06:02:04.482Z,98732.88
2022-08-27T06:04:31.492Z,98733.41
2022-08-27T06:06:58.492Z,98727.66
2022-08-27T06:09:29.611Z,98733.28
2022-08-27T06:12:02.151Z,98739.16
2022-08-27T06:14:30.272Z,98728.81
2022-08-27T06:16:59.792Z,98733.84
2022-08-27T06:19:27.547Z,98733.00
2022-08-27T06:22:00.381Z,98733.00
2022-08-27T06:24:37.327Z,98733.13
2022-08-27T06:27:04.465Z,98732.88
2022-08-27T06:29:36.759Z,98729.38
2022-08-27T06:32:04.192Z,98724.88
2022-08-27T06:34:31.418Z,98727.00
2022-08-27T06:36:58.626Z,98733.38
2022-08-27T06:39:26.132Z,98736.22
2022-08-27T06:41:53.303Z,98738.13
2022-08-27T06:44:21.128Z,98732.03
2022-08-27T06:46:48.423Z,98734.16
2022-08-27T06:49:15.446Z,98731.91
2022-08-27T06:51:47.027Z,98738.63
2022-08-27T06:54:15.404Z,98738.06
2022-08-27T06:56:44.829Z,98733.44
2022-08-27T06:59:15.204Z,98741.66
2022-08-27T07:01:44.919Z,98739.97
2022-08-27T07:04:17.547Z,98741.47
2022-08-27T07:06:45.316Z,98741.78
2022-08-27T07:09:12.580Z,98737.69
2022-08-27T07:11:40.252Z,98735.88
2022-08-27T07:14:08.402Z,98739.72
2022-08-27T07:16:35.704Z,98743.06
2022-08-27T07:19:05.295Z,98739.47
2022-08-27T07:21:34.197Z,98747.09
2022-08-27T07:24:05.214Z,98751.06
2022-08-27T07:26:37.790Z,98749.75
2022-08-27T07:29:09.896Z,98749.03
2022-08-27T07:31:37.136Z,98753.19
2022-08-27T07:34:05.831Z,98760.66
2022-08-27T07:36:34.335Z,98749.53
2022-08-27T07:39:02.118Z,98750.78
2022-08-27T07:41:32.085Z,98754.16
2022-08-27T07:44:21.179Z,98756.03
2022-08-27T07:46:55.974Z,98748.25
2022-08-27T07:49:23.865Z,98752.28
2022-08-27T07:51:52.048Z,98745.44
2022-08-27T07:54:21.438Z,98747.31
2022-08-27T07:56:54.929Z,98760.44
2022-08-27T07:59:25.183Z,98763.88
2022-08-27T08:01:54.741Z,98766.84
2022-08-27T08:04:22.930Z,98767.06
2022-08-27T08:06:52.615Z,98772.22
2022-08-27T08:09:22.439Z,98762.44
2022-08-27T08:11:50.648Z,98765.97
2022-08-27T08:14:18.757Z,98770.22
2022-08-27T08:16:46.663Z,98766.88
2022-08-27T08:19:14.068Z,98764.03
2022-08-27T08:21:41.722Z,98754.41
2022-08-27T08:24:08.847Z,98748.78
2022-08-27T08:26:36.083Z,98759.34
2022-08-27T08:29:05.321Z,98767.28
2022-08-27T08:31:32.403Z,98764.81
2022-08-27T08:33:59.442Z,98764.41
2022-08-27T08:36:26.476Z,98772.91
2022-08-27T08:38:54.927Z,98762.22
2022-08-27T08:41:42.637Z,98769.78
2022-08-27T08:44:34.086Z,98769.03
2022-08-27T08:47:12.805Z,98761.31
2022-08-27T08:49:51.978Z,98762.88
2022-08-27T08:52:26.393Z,98762.72
2022-08-27T08:55:08.645Z,98763.63
2022-08-27T08:57:46.286Z,98769.81
2022-08-27T09:00:14.691Z,98769.78
2022-08-27T09:02:49.167Z,98768.66
2022-08-27T09:05:16.541Z,98775.63
2022-08-27T09:07:47.284Z,98774.84
2022-08-27T09:10:45.727Z,98772.38
2022-08-27T09:13:27.097Z,98766.28
2022-08-27T09:15:58.271Z,98761.81
2022-08-27T09:18:28.094Z,98765.16
2022-08-27T09:21:10.942Z,98765.75
2022-08-27T09:23:51.351Z,98759.81
2022-08-27T09:26:28.114Z,98755.38
2022-08-27T09:29:16.022Z,98751.56
2022-08-27T09:31:45.407Z,98750.16
2022-08-27T09:34:13.392Z,98753.59
2022-08-27T09:37:00.141Z,98754.41
2022-08-27T09:39:36.707Z,98761.19
2022-08-27T09:42:05.019Z,98753.16
2022-08-27T09:44:33.008Z,98752.84
2022-08-27T09:47:03.129Z,98752.41
2022-08-27T09:49:31.817Z,98751.59
2022-08-27T09:51:59.190Z,98745.03
2022-08-27T09:54:42.422Z,98742.72
2022-08-27T09:57:11.955Z,98746.66
2022-08-27T09:59:43.737Z,98748.44
2022-08-27T10:02:23.216Z,98746.09
2022-08-27T10:04:53.279Z,98753.56
2022-08-27T10:07:44.637Z,98752.03
2022-08-27T10:10:23.114Z,98749.66
2022-08-27T10:13:10.344Z,98751.47
2022-08-27T10:16:07.109Z,98746.53
2022-08-27T10:19:18.686Z,98754.25
2022-08-27T10:22:05.597Z,98753.53
2022-08-27T10:24:54.446Z,98751.22
2022-08-27T10:27:44.812Z,98751.19
2022-08-27T10:30:19.080Z,98741.44
2022-08-27T10:33:23.787Z,98742.13
2022-08-27T10:36:17.130Z,98743.09
2022-08-27T10:38:50.581Z,98736.09
2022-08-27T10:41:18.759Z,98740.09
2022-08-27T10:44:27.834Z,98737.25
2022-08-27T10:47:18.313Z,98738.00
2022-08-27T10:50:29.706Z,98744.56
2022-08-27T10:53:27.160Z,98735.09
2022-08-27T10:56:10.960Z,98737.19
2022-08-27T10:59:13.641Z,98742.38
2022-08-27T11:02:33.974Z,98739.53
2022-08-27T11:05:09.814Z,98736.41
2022-08-27T11:07:42.542Z,98743.78
2022-08-27T11:10:31.299Z,98736.75
2022-08-27T11:13:04.403Z,98728.72
2022-08-27T11:15:35.124Z,98729.75
2022-08-27T11:18:11.604Z,98723.31
2022-08-27T11:20:51.218Z,98730.50
2022-08-27T11:23:25.715Z,98733.28
2022-08-27T11:26:02.311Z,98735.34
2022-08-27T11:28:43.152Z,98717.53
2022-08-27T11:31:34.626Z,98722.59
2022-08-27T11:34:31.661Z,98723.19
2022-08-27T11:37:09.816Z,98723.88
2022-08-27T11:40:24.447Z,98729.13
2022-08-27T11:42:57.435Z,98727.13
2022-08-27T11:46:05.062Z,98724.53
2022-08-27T11:48:37.055Z,98725.22
2022-08-27T11:51:24.100Z,98723.16
2022-08-27T11:53:59.915Z,98712.91
2022-08-27T11:56:41.737Z,98717.44
2022-08-27T11:59:22.595Z,98715.75
2022-08-27T12:01:55.037Z,98713.38
2022-08-27T12:04:36.770Z,98706.81
2022-08-27T12:07:17.595Z,98698.28
2022-08-27T12:10:06.638Z,98707.41
2022-08-27T12:12:53.737Z,98706.25
2022-08-27T12:15:45.674Z,98689.31
2022-08-27T12:19:03.014Z,98691.09
2022-08-27T12:21:49.927Z,98679.75
2022-08-27T12:24:34.200Z,98676.28
2022-08-27T12:27:21.136Z,98679.81
2022-08-27T12:29:54.133Z,98683.59
2022-08-27T12:32:37.393Z,98674.72
2022-08-27T12:35:15.298Z,98679.44
2022-08-27T12:37:50.437Z,98671.94
2022-08-27T12:40:29.715Z,98671.03
2022-08-27T12:43:07.696Z,98675.13
2022-08-27T12:45:45.846Z,98674.53
2022-08-27T12:48:13.753Z,98665.19
2022-08-27T12:50:40.804Z,98662.91
2022-08-27T12:53:28.911Z,98659.97
2022-08-27T12:56:12.843Z,98664.94
2022-08-27T12:59:06.095Z,98659.97
2022-08-27T13:02:15.188Z,98665.91
2022-08-27T13:04:43.829Z,98659.31
2022-08-27T13:07:11.005Z,98662.25
2022-08-27T13:09:39.422Z,98662.66
2022-08-27T13:12:17.605Z,98661.47
2022-08-27T13:14:49.633Z,98649.75
2022-08-27T13:17:24.044Z,98668.91
2022-08-27T13:19:59.207Z,98661.38
2022-08-27T13:22:47.302Z,98658.50
2022-08-27T13:25:33.323Z,98658.22
2022-08-27T13:28:21.497Z,98660.56
2022-08-27T13:30:48.887Z,98637.66
2022-08-27T13:33:30.549Z,98651.75
2022-08-27T13:35:57.998Z,98651.25
2022-08-27T13:38:33.408Z,98645.00
2022-08-27T13:41:18.015Z,98642.69
2022-08-27T13:43:47.533Z,98618.91
2022-08-27T13:46:25.380Z,98637.97
2022-08-27T13:48:55.814Z,98628.50
2022-08-27T13:51:32.855Z,98630.75
2022-08-27T13:54:16.133Z,98628.31
2022-08-27T13:56:58.226Z,98636.22
2022-08-27T13:59:27.884Z,98635.78
2022-08-27T14:02:00.888Z,98644.16
2022-08-27T14:04:41.712Z,98628.50
2022-08-27T14:07:12.885Z,98638.84
2022-08-27T14:09:54.351Z,98643.25
2022-08-27T14:12:32.876Z,98646.13
2022-08-27T14:15:12.587Z,98644.91
2022-08-27T14:17:39.526Z,98637.78
2022-08-27T14:20:07.657Z,98647.13
2022-08-27T14:22:36.737Z,98632.03
2022-08-27T14:25:04.224Z,98631.56
2022-08-27T14:27:32.125Z,98632.31
2022-08-27T14:29:59.454Z,98628.91
2022-08-27T14:32:26.514Z,98624.97
2022-08-27T14:34:53.652Z,98629.34
2022-08-27T14:37:20.528Z,98623.69
2022-08-27T14:39:47.454Z,98617.03
2022-08-27T14:42:14.744Z,98625.09
2022-08-27T14:44:42.009Z,98625.66
2022-08-27T14:47:10.247Z,98626.94
2022-08-27T14:49:40.997Z,98620.69
2022-08-27T14:52:08.946Z,98618.00
2022-08-27T14:54:36.020Z,98627.78
2022-08-27T14:57:04.018Z,98623.69
2022-08-27T14:59:31.969Z,98640.25
2022-08-27T15:02:01.667Z,98636.00
2022-08-27T15:04:29.360Z,98635.41
2022-08-27T15:06:56.924Z,98643.47
2022-08-27T15:09:24.279Z,98644.44
2022-08-27T15:11:52.701Z,98645.97
2022-08-27T15:14:26.721Z,98646.41
2022-08-27T15:16:54.066Z,98648.00
2022-08-27T15:19:23.124Z,98648.97
2022-08-27T15:21:51.588Z,98650.22
2022-08-27T15:24:24.790Z,98647.13
2022-08-27T15:26:54.119Z,98649.97
2022-08-27T15:29:25.086Z,98643.28
2022-08-27T15:31:52.834Z,98640.16
2022-08-27T15:34:19.822Z,98644.28
2022-08-27T15:36:46.962Z,98642.72
2022-08-27T15:39:13.952Z,98642.72
2022-08-27T15:42:02.963Z,98644.50
2022-08-27T15:44:29.094Z,98642.81
2022-08-27T15:46:56.283Z,98649.16
2022-08-27T15:49:23.322Z,98644.63
2022-08-27T15:51:50.455Z,98640.16
2022-08-27T15:54:19.497Z,98648.34
2022-08-27T15:56:46.905Z,98644.34
2022-08-27T15:59:13.924Z,98652.41
2022-08-27T16:01:41.590Z,98646.72
2022-08-27T16:04:09.654Z,98650.94
2022-08-27T16:06:37.503Z,98651.69
2022-08-27T16:09:05.551Z,98648.97
2022-08-27T16:11:32.667Z,98647.28
2022-08-27T16:14:00.210Z,98644.22
2022-08-27T16:16:31.222Z,98640.72
2022-08-27T16:19:01.053Z,98642.34
2022-08-27T16:21:28.275Z,98633.78
2022-08-27T16:23:55.315Z,98637.06
2022-08-27T16:26:22.773Z,98631.38
2022-08-27T16:28:49.738Z,98636.53
2022-08-27T16:31:16.839Z,98639.22
2022-08-27T16:33:44.199Z,98645.28
2022-08-27T16:36:11.885Z,98638.09
2022-08-27T16:38:40.050Z,98645.28
2022-08-27T16:41:08.273Z,98645.63
2022-08-27T16:43:35.254Z,98650.13
2022-08-27T16:46:02.597Z,98650.13
2022-08-27T16:48:48.596Z,98655.31
2022-08-27T16:51:34.660Z,98656.13
2022-08-27T16:54:03.865Z,98655.88
2022-08-27T16:56:32.828Z,98654.78
2022-08-27T16:59:03.914Z,98653.38
2022-08-27T17:01:30.825Z,98656.22
2022-08-27T17:04:13.838Z,98665.50
2022-08-27T17:06:45.733Z,98658.53
2022-08-27T17:09:12.891Z,98661.03
2022-08-27T17:11:42.878Z,98660.22
2022-08-27T17:14:12.379Z,98665.16
2022-08-27T17:16:41.806Z,98675.31
2022-08-27T17:19:09.971Z,98672.97
2022-08-27T17:21:40.387Z,98672.88
2022-08-27T17:24:12.936Z,98676.44
2022-08-27T17:26:40.667Z,98672.50
2022-08-27T17:29:07.946Z,98682.59
2022-08-27T17:31:38.816Z,98682.31
2022-08-27T17:34:12.334Z,98687.06
2022-08-27T17:36:39.350Z,98692.06
2022-08-27T17:39:06.602Z,98690.88
2022-08-27T17:41:40.507Z,98693.84
2022-08-27T17:44:20.302Z,98698.09
2022-08-27T17:46:48.586Z,98697.09
2022-08-27T17:49:17.016Z,98686.66
2022-08-27T17:51:46.043Z,98698.47
2022-08-27T17:54:31.754Z,98702.50
2022-08-27T17:56:59.600Z,98702.84
2022-08-27T17:59:26.849Z,98707.72
2022-08-27T18:01:54.013Z,98710.81
2022-08-27T18:04:21.886Z,98720.78
2022-08-27T18:06:48.982Z,98720.31
2022-08-27T18:09:16.212Z,98721.50
2022-08-27T18:11:44.621Z,98731.41
2022-08-27T18:14:11.988Z,98729.13
2022-08-27T18:16:39.076Z,98729.41
2022-08-27T18:19:06.992Z,98731.97
2022-08-27T18:21:34.759Z,98736.81
2022-08-27T18:24:01.870Z,98742.00
2022-08-27T18:26:29.945Z,98745.50
2022-08-27T18:29:09.455Z,98747.78
2022-08-27T18:31:36.533Z,98751.50
2022-08-27T18:34:03.751Z,98749.84
2022-08-27T18:36:31.407Z,98754.66
2022-08-27T18:38:58.723Z,98735.06
2022-08-27T18:41:26.751Z,98754.66
2022-08-27T18:43:54.651Z,98750.88
2022-08-27T18:46:21.939Z,98753.72
2022-08-27T18:48:49.594Z,98760.75
2022-08-27T18:51:19.780Z,98752.59
2022-08-27T18:53:48.799Z,98755.31
2022-08-27T18:56:19.015Z,98764.03
2022-08-27T18:58:47.426Z,98765.59
2022-08-27T19:01:20.212Z,98765.69
2022-08-27T19:03:51.911Z,98770.06
2022-08-27T19:06:20.745Z,98778.03
2022-08-27T19:08:49.875Z,98777.34
2022-08-27T19:11:17.422Z,98776.47
2022-08-27T19:13:44.507Z,98789.88
2022-08-27T19:16:43.351Z,98782.06
2022-08-27T19:19:12.557Z,98782.91
2022-08-27T19:21:39.608Z,98789.00
2022-08-27T19:24:07.227Z,98784.78
2022-08-27T19:26:34.797Z,98794.47
2022-08-27T19:29:02.381Z,98791.28
2022-08-27T19:31:32.521Z,98802.59
2022-08-27T19:34:00.589Z,98800.09
2022-08-27T19:36:28.184Z,98803.88
2022-08-27T19:38:55.316Z,98804.13
2022-08-27T19:41:27.309Z,98799.84
2022-08-27T19:43:55.335Z,98808.72
2022-08-27T19:46:30.765Z,98814.88
2022-08-27T19:48:58.174Z,98812.56
2022-08-27T19:51:25.209Z,98815.72
2022-08-27T19:53:52.150Z,98808.56
2022-08-27T19:56:19.285Z,98807.47
2022-08-27T19:58:46.235Z,98806.63
2022-08-27T20:01:13.341Z,98813.69
2022-08-27T20:03:40.676Z,98822.34
2022-08-27T20:06:07.780Z,98816.91
2022-08-27T20:08:34.856Z,98815.81
2022-08-27T20:11:01.827Z,98818.84
2022-08-27T20:13:32.917Z,98818.72
2022-08-27T20:16:01.402Z,98820.16
2022-08-27T20:18:28.712Z,98823.69
2022-08-27T20:20:55.674Z,98821.81
2022-08-27T20:23:23.090Z,98821.09
2022-08-27T20:25:57.828Z,98825.78
2022-08-27T20:28:42.909Z,98822.59
2022-08-27T20:31:10.578Z,98821.44
2022-08-27T20:33:37.705Z,98834.84
2022-08-27T20:36:06.547Z,98833.41
2022-08-27T20:38:33.717Z,98829.06
2022-08-27T20:41:01.201Z,98832.72
2022-08-27T20:43:28.720Z,98836.38
2022-08-27T20:45:56.561Z,98827.56
2022-08-27T20:48:23.703Z,98832.09
2022-08-27T20:50:50.685Z,98832.34
2022-08-27T20:53:17.658Z,98838.69
2022-08-27T20:55:44.922Z,98831.84
2022-08-27T20:58:30.395Z,98839.03
2022-08-27T21:01:00.368Z,98838.13
2022-08-27T21:03:27.552Z,98840.13
2022-08-27T21:05:54.754Z,98835.00
2022-08-27T21:08:21.973Z,98834.84
2022-08-27T21:10:52.175Z,98834.69
2022-08-27T21:13:20.314Z,98833.91
2022-08-27T21:15:49.305Z,98839.28
2022-08-27T21:18:21.923Z,98842.84
2022-08-27T21:20:57.668Z,98829.44
2022-08-27T21:23:27.043Z,98829.56
2022-08-27T21:26:06.475Z,98830.94
2022-08-27T21:28:33.992Z,98829.81
2022-08-27T21:31:01.025Z,98834.16
2022-08-27T21:33:28.120Z,98834.75
2022-08-27T21:35:55.349Z,98848.69
2022-08-27T21:38:22.795Z,98833.53
2022-08-27T21:40:49.810Z,98833.75
2022-08-27T21:43:16.829Z,98832.09
2022-08-27T21:45:44.178Z,98827.72
2022-08-27T21:48:11.898Z,98833.03
2022-08-27T21:50:39.189Z,98831.31
2022-08-27T21:53:06.245Z,98825.19
2022-08-27T21:55:33.868Z,98833.75
2022-08-27T21:58:00.897Z,98832.09
2022-08-27T22:00:30.757Z,98829.00
2022-08-27T22:02:58.069Z,98845.63
2022-08-27T22:05:25.282Z,98835.09
2022-08-27T22:07:52.295Z,98841.34
2022-08-27T22:10:20.050Z,98839.44
2022-08-27T22:12:47.105Z,98838.94
2022-08-27T22:15:14.315Z,98834.56
2022-08-27T22:17:41.282Z,98842.38
2022-08-27T22:20:09.670Z,98831.50
2022-08-27T22:22:37.054Z,98831.88
2022-08-27T22:25:05.556Z,98829.88
2022-08-27T22:27:32.774Z,98817.97
2022-08-27T22:29:59.665Z,98821.75
2022-08-27T22:32:26.794Z,98820.78
2022-08-27T22:34:53.773Z,98830.59
2022-08-27T22:37:20.726Z,98827.91
2022-08-27T22:39:47.666Z,98819.69
2022-08-27T22:42:16.240Z,98809.84
2022-08-27T22:44:45.248Z,98817.66
2022-08-27T22:47:14.587Z,98815.88
2022-08-27T22:49:42.795Z,98818.38
2022-08-27T22:52:10.111Z,98818.53
2022-08-27T22:54:37.131Z,98818.56
2022-08-27T22:57:04.141Z,98811.75
2022-08-27T22:59:31.322Z,98808.28
2022-08-27T23:01:59.613Z,98810.00
2022-08-27T23:04:44.937Z,98812.78
2022-08-27T23:07:15.035Z,98819.91
2022-08-27T23:09:41.935Z,98818.06
2022-08-27T23:12:09.474Z,98821.56
2022-08-27T23:14:36.546Z,98826.06
2022-08-27T23:17:03.898Z,98820.13
2022-08-27T23:19:31.076Z,98825.59
2022-08-27T23:21:59.052Z,98821.16
2022-08-27T23:24:26.445Z,98824.72
2022-08-27T23:27:26.065Z,98822.97
2022-08-27T23:29:53.152Z,98827.47
2022-08-27T23:32:20.322Z,98819.59
2022-08-27T23:34:47.273Z,98824.88
2022-08-27T23:37:14.234Z,98826.38
2022-08-27T23:39:41.411Z,98823.81
2022-08-27T23:42:08.309Z,98814.56
2022-08-27T23:44:35.374Z,98817.94
2022-08-27T23:47:02.387Z,98817.94
2022-08-27T23:49:30.131Z,98816.03
2022-08-27T23:51:57.722Z,98820.50
2022-08-27T23:54:25.064Z,98813.66
2022-08-27T23:56:52.007Z,98817.69
2022-08-27T23:59:18.999Z,98813.84
